sensor_id;sensor_type;location;lat;lon;timestamp;pressure;altitude;pressure_sealevel;temperature;humidity
14800;BME280;7491;57.750;11.970;2022-09-17T00:01:07;74598.44;;;-142.11;100.00
14800;BME280;7491;57.750;11.970;2022-09-17T00:03:35;74602.53;;;-142.11;100.00
14800;BME280;7491;57.750;11.970;2022-09-17T00:06:04;74606.59;;;-142.11;100.00
14800;BME280;7491;57.750;11.970;2022-09-17T00:08:32;74606.59;;;-142.11;100.00
14800;BME280;7491;57.750;11.970;2022-09-17T00:11:05;74614.75;;;-142.11;100.00
14800;BME280;7491;57.750;11.970;2022-09-17T00:13:32;74616.78;;;-142.11;100.00
14800;BME280;7491;57.750;11.970;2022-09-17T00:16:00;74624.94;;;-142.11;100.00
14800;BME280;7491;57.750;11.970;2022-09-17T00:18:27;74631.06;;;-142.11;100.00
14800;BME280;7491;57.750;11.970;2022-09-17T00:20:54;74631.06;;;-142.11;100.00
14800;BME280;7491;57.750;11.970;2022-09-17T00:23:20;74637.16;;;-142.11;100.00
14800;BME280;7491;57.750;11.970;2022-09-17T00:25:47;74639.22;;;-142.11;100.00
14800;BME280;7491;57.750;11.970;2022-09-17T00:28:14;74635.13;;;-142.11;100.00
14800;BME280;7491;57.750;11.970;2022-09-17T00:30:41;74639.22;;;-142.11;100.00
14800;BME280;7491;57.750;11.970;2022-09-17T00:33:12;74641.25;;;-142.11;100.00
14800;BME280;7491;57.750;11.970;2022-09-17T00:35:39;74649.41;;;-142.11;100.00
14800;BME280;7491;57.750;11.970;2022-09-17T00:38:05;74657.53;;;-142.11;100.00
14800;BME280;7491;57.750;11.970;2022-09-17T00:40:32;74667.72;;;-142.11;100.00
14800;BME280;7491;57.750;11.970;2022-09-17T00:42:59;74659.59;;;-142.11;100.00
14800;BME280;7491;57.750;11.970;2022-09-17T00:45:26;74673.84;;;-142.11;100.00
14800;BME280;7491;57.750;11.970;2022-09-17T00:47:57;74690.16;;;-142.11;100.00
14800;BME280;7491;57.750;11.970;2022-09-17T00:50:28;74690.16;;;-142.11;100.00
14800;BME280;7491;57.750;11.970;2022-09-17T00:52:57;74692.19;;;-142.11;100.00
14800;BME280;7491;57.750;11.970;2022-09-17T00:55:28;74698.28;;;-142.11;100.00
14800;BME280;7491;57.750;11.970;2022-09-17T00:57:57;74700.34;;;-142.11;100.00
14800;BME280;7491;57.750;11.970;2022-09-17T01:00:24;74720.72;;;-142.11;100.00
14800;BME280;7491;57.750;11.970;2022-09-17T01:02:52;74720.72;;;-142.11;100.00
14800;BME280;7491;57.750;11.970;2022-09-17T01:05:21;74714.59;;;-142.11;100.00
14800;BME280;7491;57.750;11.970;2022-09-17T01:08:04;74714.59;;;-142.11;100.00
14800;BME280;7491;57.750;11.970;2022-09-17T01:10:54;74714.59;;;-142.11;100.00
14800;BME280;7491;57.750;11.970;2022-09-17T01:13:31;74714.59;;;-142.11;100.00
14800;BME280;7491;57.750;11.970;2022-09-17T01:16:04;74720.72;;;-142.11;100.00
14800;BME280;7491;57.750;11.970;2022-09-17T01:18:42;74712.56;;;-142.11;100.00
14800;BME280;7491;57.750;11.970;2022-09-17T01:21:32;74714.59;;;-142.11;100.00
14800;BME280;7491;57.750;11.970;2022-09-17T01:27:27;74722.75;;;-142.11;100.00
14800;BME280;7491;57.750;11.970;2022-09-17T01:30:19;74720.72;;;-142.11;100.00
14800;BME280;7491;57.750;11.970;2022-09-17T01:32:52;74726.81;;;-142.11;100.00
14800;BME280;7491;57.750;11.970;2022-09-17T01:35:28;74734.97;;;-142.11;100.00
14800;BME280;7491;57.750;11.970;2022-09-17T01:38:04;74734.97;;;-142.11;100.00
14800;BME280;7491;57.750;11.970;2022-09-17T01:40:39;74743.13;;;-142.11;100.00
14800;BME280;7491;57.750;11.970;2022-09-17T01:43:15;74749.25;;;-142.11;100.00
14800;BME280;7491;57.750;11.970;2022-09-17T01:45:49;74753.31;;;-142.11;100.00
14800;BME280;7491;57.750;11.970;2022-09-17T01:48:19;74753.31;;;-142.11;100.00
14800;BME280;7491;57.750;11.970;2022-09-17T01:50:50;74755.34;;;-142.11;100.00
14800;BME280;7491;57.750;11.970;2022-09-17T01:53:21;74769.63;;;-142.11;100.00
14800;BME280;7491;57.750;11.970;2022-09-17T01:55:50;74771.66;;;-142.11;100.00
14800;BME280;7491;57.750;11.970;2022-09-17T01:58:22;74771.66;;;-142.11;100.00
14800;BME280;7491;57.750;11.970;2022-09-17T02:00:55;74777.75;;;-142.11;100.00
14800;BME280;7491;57.750;11.970;2022-09-17T02:03:28;74777.75;;;-142.11;100.00
14800;BME280;7491;57.750;11.970;2022-09-17T02:05:59;74790.00;;;-142.11;100.00
14800;BME280;7491;57.750;11.970;2022-09-17T02:08:31;74794.06;;;-142.11;100.00
14800;BME280;7491;57.750;11.970;2022-09-17T02:11:08;74794.06;;;-142.11;100.00
14800;BME280;7491;57.750;11.970;2022-09-17T02:13:37;74787.94;;;-142.11;100.00
14800;BME280;7491;57.750;11.970;2022-09-17T02:16:12;74790.00;;;-142.11;100.00
14800;BME280;7491;57.750;11.970;2022-09-17T02:18:48;74790.00;;;-142.11;100.00
14800;BME280;7491;57.750;11.970;2022-09-17T02:21:20;74800.19;;;-142.11;100.00
14800;BME280;7491;57.750;11.970;2022-09-17T02:23:57;74794.06;;;-142.11;100.00
14800;BME280;7491;57.750;11.970;2022-09-17T02:26:29;74804.25;;;-142.11;100.00
14800;BME280;7491;57.750;11.970;2022-09-17T02:29:03;74808.31;;;-142.11;100.00
14800;BME280;7491;57.750;11.970;2022-09-17T02:31:33;74822.59;;;-142.11;100.00
14800;BME280;7491;57.750;11.970;2022-09-17T02:34:02;74818.53;;;-142.11;100.00
14800;BME280;7491;57.750;11.970;2022-09-17T02:36:30;74822.59;;;-142.11;100.00
14800;BME280;7491;57.750;11.970;2022-09-17T02:39:00;74830.75;;;-142.11;100.00
14800;BME280;7491;57.750;11.970;2022-09-17T02:41:36;74849.09;;;-142.11;100.00
14800;BME280;7491;57.750;11.970;2022-09-17T02:44:13;74849.09;;;-142.11;100.00
14800;BME280;7491;57.750;11.970;2022-09-17T02:46:56;74857.22;;;-142.11;100.00
14800;BME280;7491;57.750;11.970;2022-09-17T02:49:39;74849.09;;;-142.11;100.00
14800;BME280;7491;57.750;11.970;2022-09-17T02:52:16;74859.28;;;-142.11;100.00
14800;BME280;7491;57.750;11.970;2022-09-17T02:54:51;74863.34;;;-142.11;100.00
14800;BME280;7491;57.750;11.970;2022-09-17T02:57:29;74867.44;;;-142.11;100.00
14800;BME280;7491;57.750;11.970;2022-09-17T03:00:03;74869.47;;;-142.11;100.00
14800;BME280;7491;57.750;11.970;2022-09-17T03:02:35;74883.72;;;-142.11;100.00
14800;BME280;7491;57.750;11.970;2022-09-17T03:05:07;74887.81;;;-142.11;100.00
14800;BME280;7491;57.750;11.970;2022-09-17T03:07:35;74902.06;;;-142.11;100.00
14800;BME280;7491;57.750;11.970;2022-09-17T03:10:03;74898.00;;;-142.11;100.00
14800;BME280;7491;57.750;11.970;2022-09-17T03:12:30;74904.09;;;-142.11;100.00
14800;BME280;7491;57.750;11.970;2022-09-17T03:14:57;74895.94;;;-142.11;100.00
14800;BME280;7491;57.750;11.970;2022-09-17T03:17:23;74908.19;;;-142.11;100.00
14800;BME280;7491;57.750;11.970;2022-09-17T03:19:50;74902.06;;;-142.11;100.00
14800;BME280;7491;57.750;11.970;2022-09-17T03:22:19;74891.88;;;-142.11;100.00
14800;BME280;7491;57.750;11.970;2022-09-17T03:24:46;74898.00;;;-142.11;100.00
14800;BME280;7491;57.750;11.970;2022-09-17T03:27:13;74891.88;;;-142.11;100.00
14800;BME280;7491;57.750;11.970;2022-09-17T03:29:39;74889.84;;;-142.11;100.00
14800;BME280;7491;57.750;11.970;2022-09-17T03:32:06;74889.84;;;-142.11;100.00
14800;BME280;7491;57.750;11.970;2022-09-17T03:34:33;74889.84;;;-142.11;100.00
14800;BME280;7491;57.750;11.970;2022-09-17T03:36:59;74883.72;;;-142.11;100.00
14800;BME280;7491;57.750;11.970;2022-09-17T03:39:28;74891.88;;;-142.11;100.00
14800;BME280;7491;57.750;11.970;2022-09-17T03:41:55;74885.75;;;-142.11;100.00
14800;BME280;7491;57.750;11.970;2022-09-17T03:44:22;74898.00;;;-142.11;100.00
14800;BME280;7491;57.750;11.970;2022-09-17T03:46:49;74906.13;;;-142.11;100.00
14800;BME280;7491;57.750;11.970;2022-09-17T03:49:16;74906.13;;;-142.11;100.00
14800;BME280;7491;57.750;11.970;2022-09-17T03:51:42;74924.47;;;-142.11;100.00
14800;BME280;7491;57.750;11.970;2022-09-17T03:54:09;74908.19;;;-142.11;100.00
14800;BME280;7491;57.750;11.970;2022-09-17T03:56:37;74926.53;;;-142.11;100.00
14800;BME280;7491;57.750;11.970;2022-09-17T03:59:04;74910.22;;;-142.11;100.00
14800;BME280;7491;57.750;11.970;2022-09-17T04:01:31;74920.41;;;-142.11;100.00
14800;BME280;7491;57.750;11.970;2022-09-17T04:03:58;74918.38;;;-142.11;100.00
14800;BME280;7491;57.750;11.970;2022-09-17T04:06:25;74928.56;;;-142.11;100.00
14800;BME280;7491;57.750;11.970;2022-09-17T04:08:52;74932.63;;;-142.11;100.00
14800;BME280;7491;57.750;11.970;2022-09-17T04:11:19;74950.97;;;-142.11;100.00
14800;BME280;7491;57.750;11.970;2022-09-17T04:13:48;74938.75;;;-142.11;100.00
14800;BME280;7491;57.750;11.970;2022-09-17T04:16:14;74936.72;;;-142.11;100.00
14800;BME280;7491;57.750;11.970;2022-09-17T04:18:41;74944.84;;;-142.11;100.00
14800;BME280;7491;57.750;11.970;2022-09-17T04:21:08;74946.91;;;-142.11;100.00
14800;BME280;7491;57.750;11.970;2022-09-17T04:23:35;74955.03;;;-142.11;100.00
14800;BME280;7491;57.750;11.970;2022-09-17T04:26:02;74957.09;;;-142.11;100.00
14800;BME280;7491;57.750;11.970;2022-09-17T04:28:29;74946.91;;;-142.11;100.00
14800;BME280;7491;57.750;11.970;2022-09-17T04:30:57;74948.94;;;-142.11;100.00
14800;BME280;7491;57.750;11.970;2022-09-17T04:33:24;74946.91;;;-142.11;100.00
14800;BME280;7491;57.750;11.970;2022-09-17T04:35:55;74942.81;;;-142.11;100.00
14800;BME280;7491;57.750;11.970;2022-09-17T04:38:24;74944.84;;;-142.11;100.00
14800;BME280;7491;57.750;11.970;2022-09-17T04:40:51;74963.19;;;-142.11;100.00
14800;BME280;7491;57.750;11.970;2022-09-17T04:43:21;74963.19;;;-142.11;100.00
14800;BME280;7491;57.750;11.970;2022-09-17T04:45:54;74963.19;;;-142.11;100.00
14800;BME280;7491;57.750;11.970;2022-09-17T04:48:22;74969.31;;;-142.11;100.00
14800;BME280;7491;57.750;11.970;2022-09-17T04:50:50;74961.16;;;-142.11;100.00
14800;BME280;7491;57.750;11.970;2022-09-17T04:53:19;74967.28;;;-142.11;100.00
14800;BME280;7491;57.750;11.970;2022-09-17T04:55:46;74963.19;;;-142.11;100.00
14800;BME280;7491;57.750;11.970;2022-09-17T04:58:13;74969.31;;;-142.11;100.00
14800;BME280;7491;57.750;11.970;2022-09-17T05:00:40;74977.47;;;-142.11;100.00
14800;BME280;7491;57.750;11.970;2022-09-17T05:03:07;74971.34;;;-142.11;100.00
14800;BME280;7491;57.750;11.970;2022-09-17T05:05:35;74997.84;;;-142.11;100.00
14800;BME280;7491;57.750;11.970;2022-09-17T05:08:02;74981.53;;;-142.11;100.00
14800;BME280;7491;57.750;11.970;2022-09-17T05:10:29;74971.34;;;-142.11;100.00
14800;BME280;7491;57.750;11.970;2022-09-17T05:12:55;74979.50;;;-142.11;100.00
14800;BME280;7491;57.750;11.970;2022-09-17T05:15:23;74981.53;;;-142.11;100.00
14800;BME280;7491;57.750;11.970;2022-09-17T05:17:50;74975.44;;;-142.11;100.00
14800;BME280;7491;57.750;11.970;2022-09-17T05:20:17;74983.56;;;-142.11;100.00
14800;BME280;7491;57.750;11.970;2022-09-17T05:22:47;74973.38;;;-142.11;100.00
14800;BME280;7491;57.750;11.970;2022-09-17T05:25:17;74965.25;;;-142.11;100.00
14800;BME280;7491;57.750;11.970;2022-09-17T05:27:44;74963.19;;;-142.11;100.00
14800;BME280;7491;57.750;11.970;2022-09-17T05:30:12;74977.47;;;-142.11;100.00
14800;BME280;7491;57.750;11.970;2022-09-17T05:32:39;74967.28;;;-142.11;100.00
14800;BME280;7491;57.750;11.970;2022-09-17T05:35:07;74963.19;;;-142.11;100.00
14800;BME280;7491;57.750;11.970;2022-09-17T05:37:34;74957.09;;;-142.11;100.00
14800;BME280;7491;57.750;11.970;2022-09-17T05:40:03;74938.75;;;-142.11;100.00
14800;BME280;7491;57.750;11.970;2022-09-17T05:42:30;74940.78;;;-142.11;100.00
14800;BME280;7491;57.750;11.970;2022-09-17T05:44:57;74932.63;;;-142.11;100.00
14800;BME280;7491;57.750;11.970;2022-09-17T05:47:24;74891.88;;;-142.11;100.00
14800;BME280;7491;57.750;11.970;2022-09-17T05:49:50;74881.69;;;-142.11;100.00
14800;BME280;7491;57.750;11.970;2022-09-17T05:52:17;74861.31;;;-142.11;100.00
14800;BME280;7491;57.750;11.970;2022-09-17T05:54:44;74761.47;;;-142.11;100.00
14800;BME280;7491;57.750;11.970;2022-09-17T05:57:12;74792.03;;;-142.11;100.00
14800;BME280;7491;57.750;11.970;2022-09-17T05:59:40;74826.66;;;-142.11;100.00
14800;BME280;7491;57.750;11.970;2022-09-17T06:02:10;74840.94;;;-142.11;100.00
14800;BME280;7491;57.750;11.970;2022-09-17T06:04:37;74879.66;;;-142.11;100.00
14800;BME280;7491;57.750;11.970;2022-09-17T06:07:04;74863.34;;;-142.11;100.00
14800;BME280;7491;57.750;11.970;2022-09-17T06:09:33;74865.38;;;-142.11;100.00
14800;BME280;7491;57.750;11.970;2022-09-17T06:12:00;74845.00;;;-142.11;100.00
14800;BME280;7491;57.750;11.970;2022-09-17T06:14:29;74842.97;;;-142.11;100.00
14800;BME280;7491;57.750;11.970;2022-09-17T06:16:56;74828.72;;;-142.11;100.00
14800;BME280;7491;57.750;11.970;2022-09-17T06:19:22;74840.94;;;-142.11;100.00
14800;BME280;7491;57.750;11.970;2022-09-17T06:21:49;74828.72;;;-142.11;100.00
14800;BME280;7491;57.750;11.970;2022-09-17T06:24:16;74824.63;;;-142.11;100.00
14800;BME280;7491;57.750;11.970;2022-09-17T06:26:42;74816.47;;;-142.11;100.00
14800;BME280;7491;57.750;11.970;2022-09-17T06:29:09;74806.28;;;-142.11;100.00
14800;BME280;7491;57.750;11.970;2022-09-17T06:31:41;74796.09;;;-142.11;100.00
14800;BME280;7491;57.750;11.970;2022-09-17T06:34:08;74785.91;;;-142.11;100.00
14800;BME280;7491;57.750;11.970;2022-09-17T06:36:35;74777.75;;;-142.11;100.00
14800;BME280;7491;57.750;11.970;2022-09-17T06:39:02;74773.69;;;-142.11;100.00
14800;BME280;7491;57.750;11.970;2022-09-17T06:41:28;74767.56;;;-142.11;100.00
14800;BME280;7491;57.750;11.970;2022-09-17T06:43:55;74773.69;;;-142.11;100.00
14800;BME280;7491;57.750;11.970;2022-09-17T06:46:22;74769.63;;;-142.11;100.00
14800;BME280;7491;57.750;11.970;2022-09-17T06:48:50;74769.63;;;-142.11;100.00
14800;BME280;7491;57.750;11.970;2022-09-17T06:51:17;74757.38;;;-142.11;100.00
14800;BME280;7491;57.750;11.970;2022-09-17T06:53:43;74745.16;;;-142.11;100.00
14800;BME280;7491;57.750;11.970;2022-09-17T06:56:10;74741.09;;;-142.11;100.00
14800;BME280;7491;57.750;11.970;2022-09-17T06:58:36;74737.00;;;-142.11;100.00
14800;BME280;7491;57.750;11.970;2022-09-17T07:01:05;74722.75;;;-142.11;100.00
14800;BME280;7491;57.750;11.970;2022-09-17T07:03:33;74716.63;;;-142.11;100.00
14800;BME280;7491;57.750;11.970;2022-09-17T07:06:01;74714.59;;;-142.11;100.00
14800;BME280;7491;57.750;11.970;2022-09-17T07:08:28;74704.41;;;-142.11;100.00
14800;BME280;7491;57.750;11.970;2022-09-17T07:10:57;74702.38;;;-142.11;100.00
14800;BME280;7491;57.750;11.970;2022-09-17T07:13:24;74675.88;;;-142.11;100.00
14800;BME280;7491;57.750;11.970;2022-09-17T07:15:53;74657.53;;;-142.11;100.00
14800;BME280;7491;57.750;11.970;2022-09-17T07:18:20;74659.59;;;-142.11;100.00
14800;BME280;7491;57.750;11.970;2022-09-17T07:20:51;74631.06;;;-142.11;100.00
14800;BME280;7491;57.750;11.970;2022-09-17T07:23:21;74606.59;;;-142.11;100.00
14800;BME280;7491;57.750;11.970;2022-09-17T07:25:50;74610.69;;;-142.11;100.00
14800;BME280;7491;57.750;11.970;2022-09-17T07:28:17;74610.69;;;-142.11;100.00
14800;BME280;7491;57.750;11.970;2022-09-17T07:30:44;74614.75;;;-142.11;100.00
14800;BME280;7491;57.750;11.970;2022-09-17T07:33:11;74604.56;;;-142.11;100.00
14800;BME280;7491;57.750;11.970;2022-09-17T07:35:37;74594.38;;;-142.11;100.00
14800;BME280;7491;57.750;11.970;2022-09-17T07:38:04;74563.81;;;-142.11;100.00
14800;BME280;7491;57.750;11.970;2022-09-17T07:40:33;74549.56;;;-142.11;100.00
14800;BME280;7491;57.750;11.970;2022-09-17T07:43:00;74549.56;;;-142.11;100.00
14800;BME280;7491;57.750;11.970;2022-09-17T07:45:27;74535.28;;;-142.11;100.00
14800;BME280;7491;57.750;11.970;2022-09-17T07:47:54;74545.47;;;-142.11;100.00
14800;BME280;7491;57.750;11.970;2022-09-17T07:50:20;74551.59;;;-142.11;100.00
14800;BME280;7491;57.750;11.970;2022-09-17T07:52:49;74527.13;;;-142.11;100.00
14800;BME280;7491;57.750;11.970;2022-09-17T07:55:16;74514.91;;;-142.11;100.00
14800;BME280;7491;57.750;11.970;2022-09-17T07:57:49;74508.81;;;-142.11;100.00
14800;BME280;7491;57.750;11.970;2022-09-17T08:00:16;74494.53;;;-142.11;100.00
14800;BME280;7491;57.750;11.970;2022-09-17T08:02:43;74468.06;;;-142.11;100.00
14800;BME280;7491;57.750;11.970;2022-09-17T08:05:10;74463.97;;;-142.11;100.00
14800;BME280;7491;57.750;11.970;2022-09-17T08:07:36;74470.09;;;-142.11;100.00
14800;BME280;7491;57.750;11.970;2022-09-17T08:10:04;74468.06;;;-142.11;100.00
14800;BME280;7491;57.750;11.970;2022-09-17T08:12:32;74459.91;;;-142.11;100.00
14800;BME280;7491;57.750;11.970;2022-09-17T08:15:00;74463.97;;;-142.11;100.00
14800;BME280;7491;57.750;11.970;2022-09-17T08:17:30;74433.41;;;-142.11;100.00
14800;BME280;7491;57.750;11.970;2022-09-17T08:20:09;74447.69;;;-142.11;100.00
14800;BME280;7491;57.750;11.970;2022-09-17T08:22:45;74433.41;;;-142.11;100.00
14800;BME280;7491;57.750;11.970;2022-09-17T08:25:20;74451.75;;;-142.11;100.00
14800;BME280;7491;57.750;11.970;2022-09-17T08:27:54;74411.00;;;-142.11;100.00
14800;BME280;7491;57.750;11.970;2022-09-17T08:30:23;74406.94;;;-142.11;100.00
14800;BME280;7491;57.750;11.970;2022-09-17T08:32:50;74380.44;;;-142.11;100.00
14800;BME280;7491;57.750;11.970;2022-09-17T08:35:17;74364.13;;;-142.11;100.00
14800;BME280;7491;57.750;11.970;2022-09-17T08:37:44;74364.13;;;-142.11;100.00
14800;BME280;7491;57.750;11.970;2022-09-17T08:40:16;74366.19;;;-142.11;100.00
14800;BME280;7491;57.750;11.970;2022-09-17T08:42:51;74360.06;;;-142.11;100.00
14800;BME280;7491;57.750;11.970;2022-09-17T08:45:31;74370.25;;;-142.11;100.00
14800;BME280;7491;57.750;11.970;2022-09-17T08:48:05;74353.94;;;-142.11;100.00
14800;BME280;7491;57.750;11.970;2022-09-17T08:50:35;74341.72;;;-142.11;100.00
14800;BME280;7491;57.750;11.970;2022-09-17T08:53:14;74341.72;;;-142.11;100.00
14800;BME280;7491;57.750;11.970;2022-09-17T08:55:48;74347.84;;;-142.11;100.00
14800;BME280;7491;57.750;11.970;2022-09-17T08:58:28;74325.44;;;-142.11;100.00
14800;BME280;7491;57.750;11.970;2022-09-17T09:01:18;74337.66;;;-142.11;100.00
14800;BME280;7491;57.750;11.970;2022-09-17T09:07:05;74296.91;;;-142.11;100.00
14800;BME280;7491;57.750;11.970;2022-09-17T09:09:37;74296.91;;;-142.11;100.00
14800;BME280;7491;57.750;11.970;2022-09-17T09:12:27;74286.72;;;-142.11;100.00
14800;BME280;7491;57.750;11.970;2022-09-17T09:15:03;74284.69;;;-142.11;99.65
14800;BME280;7491;57.750;11.970;2022-09-17T09:17:37;74282.66;;;-142.11;99.70
14800;BME280;7491;57.750;11.970;2022-09-17T09:20:13;74266.34;;;-142.11;99.54
14800;BME280;7491;57.750;11.970;2022-09-17T09:22:48;74270.41;;;-142.11;98.76
14800;BME280;7491;57.750;11.970;2022-09-17T09:25:20;74256.16;;;-142.11;99.29
14800;BME280;7491;57.750;11.970;2022-09-17T09:28:06;74252.09;;;-142.11;100.00
14800;BME280;7491;57.750;11.970;2022-09-17T09:30:51;74243.94;;;-142.11;98.15
14800;BME280;7491;57.750;11.970;2022-09-17T09:33:30;74227.63;;;-142.11;98.59
14800;BME280;7491;57.750;11.970;2022-09-17T09:35:57;74227.63;;;-142.11;99.69
14800;BME280;7491;57.750;11.970;2022-09-17T09:38:30;74237.81;;;-142.11;96.50
14800;BME280;7491;57.750;11.970;2022-09-17T09:41:04;74237.81;;;-142.11;96.25
14800;BME280;7491;57.750;11.970;2022-09-17T09:43:37;74229.69;;;-142.11;96.14
14800;BME280;7491;57.750;11.970;2022-09-17T09:46:26;74223.56;;;-142.11;95.13
14800;BME280;7491;57.750;11.970;2022-09-17T09:49:04;74209.28;;;-142.11;96.62
14800;BME280;7491;57.750;11.970;2022-09-17T09:51:43;74197.06;;;-142.11;96.75
14800;BME280;7491;57.750;11.970;2022-09-17T09:54:30;74201.16;;;-142.11;94.55
14800;BME280;7491;57.750;11.970;2022-09-17T09:57:04;74186.88;;;-142.11;98.84
14800;BME280;7491;57.750;11.970;2022-09-17T09:59:32;74172.63;;;-142.11;95.31
14800;BME280;7491;57.750;11.970;2022-09-17T10:02:00;74172.63;;;-142.11;94.99
14800;BME280;7491;57.750;11.970;2022-09-17T10:04:28;74178.75;;;-142.11;93.55
14800;BME280;7491;57.750;11.970;2022-09-17T10:07:00;74170.59;;;-142.11;93.52
14800;BME280;7491;57.750;11.970;2022-09-17T10:09:28;74158.38;;;-142.11;93.01
14800;BME280;7491;57.750;11.970;2022-09-17T10:12:01;74148.19;;;-142.11;93.40
14800;BME280;7491;57.750;11.970;2022-09-17T10:14:29;74148.19;;;-142.11;93.36
14800;BME280;7491;57.750;11.970;2022-09-17T10:17:15;74140.03;;;-142.11;92.88
14800;BME280;7491;57.750;11.970;2022-09-17T10:19:46;74125.78;;;-142.11;93.13
14800;BME280;7491;57.750;11.970;2022-09-17T10:22:24;74125.78;;;-142.11;93.52
14800;BME280;7491;57.750;11.970;2022-09-17T10:24:54;74129.84;;;-142.11;91.51
14800;BME280;7491;57.750;11.970;2022-09-17T10:27:22;74123.72;;;-142.11;91.11
14800;BME280;7491;57.750;11.970;2022-09-17T10:30:00;74109.47;;;-142.11;91.29
14800;BME280;7491;57.750;11.970;2022-09-17T10:32:27;74123.72;;;-142.11;91.13
14800;BME280;7491;57.750;11.970;2022-09-17T10:35:25;74093.16;;;-142.11;91.42
14800;BME280;7491;57.750;11.970;2022-09-17T10:37:53;74080.94;;;-142.11;91.97
14800;BME280;7491;57.750;11.970;2022-09-17T10:40:30;74068.72;;;-142.11;93.50
14800;BME280;7491;57.750;11.970;2022-09-17T10:43:20;74068.72;;;-142.11;91.95
14800;BME280;7491;57.750;11.970;2022-09-17T10:45:56;74076.88;;;-142.11;91.03
14800;BME280;7491;57.750;11.970;2022-09-17T10:48:25;74054.47;;;-142.11;91.64
14800;BME280;7491;57.750;11.970;2022-09-17T10:50:56;74054.47;;;-142.11;92.28
14800;BME280;7491;57.750;11.970;2022-09-17T10:53:24;74050.38;;;-142.11;94.63
14800;BME280;7491;57.750;11.970;2022-09-17T10:55:57;74062.63;;;-142.11;89.90
14800;BME280;7491;57.750;11.970;2022-09-17T10:58:39;74040.19;;;-142.11;92.77
14800;BME280;7491;57.750;11.970;2022-09-17T11:01:19;74044.28;;;-142.11;91.23
14800;BME280;7491;57.750;11.970;2022-09-17T11:04:19;74042.25;;;-142.11;89.99
14800;BME280;7491;57.750;11.970;2022-09-17T11:07:03;74032.06;;;-142.11;94.34
14800;BME280;7491;57.750;11.970;2022-09-17T11:09:43;74021.88;;;-142.11;92.45
14800;BME280;7491;57.750;11.970;2022-09-17T11:12:33;74015.75;;;-142.11;92.12
14800;BME280;7491;57.750;11.970;2022-09-17T11:15:12;74023.91;;;-142.11;91.94
14800;BME280;7491;57.750;11.970;2022-09-17T11:17:54;74032.06;;;-142.11;93.32
14800;BME280;7491;57.750;11.970;2022-09-17T11:20:35;74025.94;;;-142.11;92.89
14800;BME280;7491;57.750;11.970;2022-09-17T11:23:23;74009.66;;;-142.11;93.50
14800;BME280;7491;57.750;11.970;2022-09-17T11:25:54;74032.06;;;-142.11;92.23
14800;BME280;7491;57.750;11.970;2022-09-17T11:28:42;74015.75;;;-142.11;92.80
14800;BME280;7491;57.750;11.970;2022-09-17T11:31:22;74019.84;;;-142.11;92.19
14800;BME280;7491;57.750;11.970;2022-09-17T11:34:11;74019.84;;;-142.11;93.19
14800;BME280;7491;57.750;11.970;2022-09-17T11:36:45;74013.72;;;-142.11;92.47
14800;BME280;7491;57.750;11.970;2022-09-17T11:39:17;74007.59;;;-142.11;93.91
14800;BME280;7491;57.750;11.970;2022-09-17T11:41:47;74007.59;;;-142.11;93.13
14800;BME280;7491;57.750;11.970;2022-09-17T11:44:22;74013.72;;;-142.11;94.07
14800;BME280;7491;57.750;11.970;2022-09-17T11:46:52;74013.72;;;-142.11;95.33
14800;BME280;7491;57.750;11.970;2022-09-17T11:49:25;74013.72;;;-142.11;93.15
14800;BME280;7491;57.750;11.970;2022-09-17T11:51:56;74007.59;;;-142.11;93.60
14800;BME280;7491;57.750;11.970;2022-09-17T11:54:28;73999.47;;;-142.11;94.02
14800;BME280;7491;57.750;11.970;2022-09-17T11:57:03;73999.47;;;-142.11;94.00
14800;BME280;7491;57.750;11.970;2022-09-17T11:59:35;74003.53;;;-142.11;94.75
14800;BME280;7491;57.750;11.970;2022-09-17T12:02:09;74001.50;;;-142.11;95.77
14800;BME280;7491;57.750;11.970;2022-09-17T12:04:43;73985.19;;;-142.11;95.44
14800;BME280;7491;57.750;11.970;2022-09-17T12:07:24;73987.25;;;-142.11;95.62
14800;BME280;7491;57.750;11.970;2022-09-17T12:09:59;73991.31;;;-142.11;95.42
14800;BME280;7491;57.750;11.970;2022-09-17T12:12:29;74005.56;;;-142.11;95.73
14800;BME280;7491;57.750;11.970;2022-09-17T12:15:01;74001.50;;;-142.11;96.31
14800;BME280;7491;57.750;11.970;2022-09-17T12:17:35;73987.25;;;-142.11;95.43
14800;BME280;7491;57.750;11.970;2022-09-17T12:20:06;73993.34;;;-142.11;94.38
14800;BME280;7491;57.750;11.970;2022-09-17T12:22:36;73995.38;;;-142.11;94.81
14800;BME280;7491;57.750;11.970;2022-09-17T12:25:11;73991.31;;;-142.11;95.38
14800;BME280;7491;57.750;11.970;2022-09-17T12:27:44;73991.31;;;-142.11;94.84
14800;BME280;7491;57.750;11.970;2022-09-17T12:30:15;73995.38;;;-142.11;94.14
14800;BME280;7491;57.750;11.970;2022-09-17T12:33:02;73985.19;;;-142.11;94.80
14800;BME280;7491;57.750;11.970;2022-09-17T12:35:44;73985.19;;;-142.11;95.00
14800;BME280;7491;57.750;11.970;2022-09-17T12:38:23;73989.28;;;-142.11;94.60
14800;BME280;7491;57.750;11.970;2022-09-17T12:40:56;73987.25;;;-142.11;95.35
14800;BME280;7491;57.750;11.970;2022-09-17T12:43:50;73989.28;;;-142.11;94.38
14800;BME280;7491;57.750;11.970;2022-09-17T12:46:35;73970.94;;;-142.11;94.85
14800;BME280;7491;57.750;11.970;2022-09-17T12:49:19;73979.09;;;-142.11;94.15
14800;BME280;7491;57.750;11.970;2022-09-17T12:51:54;73979.09;;;-142.11;93.65
14800;BME280;7491;57.750;11.970;2022-09-17T12:54:38;73972.97;;;-142.11;94.44
14800;BME280;7491;57.750;11.970;2022-09-17T12:57:18;73966.88;;;-142.11;93.07
14800;BME280;7491;57.750;11.970;2022-09-17T12:59:49;73972.97;;;-142.11;92.95
14800;BME280;7491;57.750;11.970;2022-09-17T13:02:21;73970.94;;;-142.11;93.10